sensor_id;sensor_type;location;lat;lon;timestamp;P1;durP1;ratioP1;P2;durP2;ratioP2
47555;SDS011;33291;46.222;26.460;2024-03-25T00:02:16;0.65;;;0.35;;
47555;SDS011;33291;46.222;26.460;2024-03-25T00:04:41;0.90;;;0.50;;
47555;SDS011;33291;46.222;26.460;2024-03-25T00:07:07;1.25;;;0.68;;
47555;SDS011;33291;46.222;26.460;2024-03-25T00:09:33;1.77;;;0.60;;
47555;SDS011;33291;46.222;26.460;2024-03-25T00:11:58;0.80;;;0.30;;
47555;SDS011;33291;46.222;26.460;2024-03-25T00:14:24;1.58;;;0.82;;
47555;SDS011;33291;46.222;26.460;2024-03-25T00:16:49;2.35;;;1.10;;
47555;SDS011;33291;46.222;26.460;2024-03-25T00:19:15;2.33;;;1.27;;
47555;SDS011;33291;46.222;26.460;2024-03-25T00:21:41;2.60;;;0.88;;
47555;SDS011;33291;46.222;26.460;2024-03-25T00:24:07;1.10;;;0.68;;
47555;SDS011;33291;46.222;26.460;2024-03-25T00:26:33;0.90;;;0.60;;
47555;SDS011;33291;46.222;26.460;2024-03-25T00:28:58;0.50;;;0.30;;
47555;SDS011;33291;46.222;26.460;2024-03-25T00:31:24;0.57;;;0.40;;
47555;SDS011;33291;46.222;26.460;2024-03-25T00:33:50;1.48;;;0.88;;
47555;SDS011;33291;46.222;26.460;2024-03-25T00:36:16;1.30;;;0.65;;
47555;SDS011;33291;46.222;26.460;2024-03-25T00:38:42;0.45;;;0.30;;
47555;SDS011;33291;46.222;26.460;2024-03-25T00:41:08;3.05;;;1.50;;
47555;SDS011;33291;46.222;26.460;2024-03-25T00:43:34;6.25;;;1.70;;
47555;SDS011;33291;46.222;26.460;2024-03-25T00:46:00;3.90;;;1.25;;
47555;SDS011;33291;46.222;26.460;2024-03-25T00:48:25;1.65;;;0.85;;
47555;SDS011;33291;46.222;26.460;2024-03-25T00:50:52;5.03;;;1.95;;
47555;SDS011;33291;46.222;26.460;2024-03-25T00:53:17;2.90;;;2.08;;
47555;SDS011;33291;46.222;26.460;2024-03-25T00:55:43;1.85;;;1.40;;
47555;SDS011;33291;46.222;26.460;2024-03-25T00:58:09;1.60;;;0.68;;
47555;SDS011;33291;46.222;26.460;2024-03-25T01:00:35;3.05;;;0.50;;
47555;SDS011;33291;46.222;26.460;2024-03-25T01:03:00;1.20;;;0.60;;
47555;SDS011;33291;46.222;26.460;2024-03-25T01:05:27;1.00;;;0.40;;
47555;SDS011;33291;46.222;26.460;2024-03-25T01:07:52;1.77;;;0.90;;
47555;SDS011;33291;46.222;26.460;2024-03-25T01:10:18;3.90;;;0.93;;
47555;SDS011;33291;46.222;26.460;2024-03-25T01:12:44;0.75;;;0.50;;
47555;SDS011;33291;46.222;26.460;2024-03-25T01:15:09;0.57;;;0.40;;
47555;SDS011;33291;46.222;26.460;2024-03-25T01:17:36;0.52;;;0.30;;
47555;SDS011;33291;46.222;26.460;2024-03-25T01:20:02;0.80;;;0.40;;
47555;SDS011;33291;46.222;26.460;2024-03-25T01:22:29;1.15;;;0.40;;
47555;SDS011;33291;46.222;26.460;2024-03-25T01:24:56;1.48;;;0.60;;
47555;SDS011;33291;46.222;26.460;2024-03-25T01:27:22;1.27;;;0.40;;
47555;SDS011;33291;46.222;26.460;2024-03-25T01:29:47;2.58;;;0.38;;
47555;SDS011;33291;46.222;26.460;2024-03-25T01:32:13;0.75;;;0.40;;
47555;SDS011;33291;46.222;26.460;2024-03-25T01:34:38;0.60;;;0.35;;
47555;SDS011;33291;46.222;26.460;2024-03-25T01:37:05;0.30;;;0.28;;
47555;SDS011;33291;46.222;26.460;2024-03-25T01:39:30;1.45;;;0.40;;
47555;SDS011;33291;46.222;26.460;2024-03-25T01:41:56;0.43;;;0.30;;
47555;SDS011;33291;46.222;26.460;2024-03-25T01:44:22;0.93;;;0.55;;
47555;SDS011;33291;46.222;26.460;2024-03-25T01:46:47;0.63;;;0.45;;
47555;SDS011;33291;46.222;26.460;2024-03-25T01:49:13;0.50;;;0.40;;
47555;SDS011;33291;46.222;26.460;2024-03-25T01:51:39;0.60;;;0.40;;
47555;SDS011;33291;46.222;26.460;2024-03-25T01:54:05;0.77;;;0.50;;
47555;SDS011;33291;46.222;26.460;2024-03-25T01:56:33;0.43;;;0.40;;
47555;SDS011;33291;46.222;26.460;2024-03-25T01:59:00;0.55;;;0.30;;
47555;SDS011;33291;46.222;26.460;2024-03-25T02:01:26;1.02;;;0.73;;
47555;SDS011;33291;46.222;26.460;2024-03-25T02:03:54;0.63;;;0.40;;
47555;SDS011;33291;46.222;26.460;2024-03-25T02:06:21;0.55;;;0.30;;
47555;SDS011;33291;46.222;26.460;2024-03-25T02:08:47;1.65;;;0.60;;
47555;SDS011;33291;46.222;26.460;2024-03-25T02:11:14;0.80;;;0.43;;
47555;SDS011;33291;46.222;26.460;2024-03-25T02:13:40;0.52;;;0.52;;
47555;SDS011;33291;46.222;26.460;2024-03-25T02:16:06;0.30;;;0.30;;
47555;SDS011;33291;46.222;26.460;2024-03-25T02:18:32;0.85;;;0.40;;
47555;SDS011;33291;46.222;26.460;2024-03-25T02:20:58;0.77;;;0.40;;
47555;SDS011;33291;46.222;26.460;2024-03-25T02:23:24;1.33;;;0.60;;
47555;SDS011;33291;46.222;26.460;2024-03-25T02:25:50;0.68;;;0.30;;
47555;SDS011;33291;46.222;26.460;2024-03-25T02:28:16;0.60;;;0.30;;
47555;SDS011;33291;46.222;26.460;2024-03-25T02:30:43;0.75;;;0.50;;
47555;SDS011;33291;46.222;26.460;2024-03-25T02:33:08;0.32;;;0.28;;
47555;SDS011;33291;46.222;26.460;2024-03-25T02:35:34;0.90;;;0.60;;
47555;SDS011;33291;46.222;26.460;2024-03-25T02:38:01;3.20;;;0.40;;
47555;SDS011;33291;46.222;26.460;2024-03-25T02:40:28;0.40;;;0.20;;
47555;SDS011;33291;46.222;26.460;2024-03-25T02:42:54;0.75;;;0.57;;
47555;SDS011;33291;46.222;26.460;2024-03-25T02:45:20;1.08;;;0.57;;
47555;SDS011;33291;46.222;26.460;2024-03-25T02:47:46;1.52;;;0.95;;
47555;SDS011;33291;46.222;26.460;2024-03-25T02:50:12;2.40;;;0.60;;
47555;SDS011;33291;46.222;26.460;2024-03-25T02:52:37;1.48;;;0.63;;
47555;SDS011;33291;46.222;26.460;2024-03-25T02:55:03;0.90;;;0.50;;
47555;SDS011;33291;46.222;26.460;2024-03-25T02:57:29;0.80;;;0.40;;
47555;SDS011;33291;46.222;26.460;2024-03-25T02:59:55;1.25;;;0.60;;
47555;SDS011;33291;46.222;26.460;2024-03-25T03:02:20;1.58;;;0.75;;
47555;SDS011;33291;46.222;26.460;2024-03-25T03:04:46;1.00;;;0.55;;
47555;SDS011;33291;46.222;26.460;2024-03-25T03:07:11;0.77;;;0.45;;
47555;SDS011;33291;46.222;26.460;2024-03-25T03:09:37;1.65;;;0.40;;
47555;SDS011;33291;46.222;26.460;2024-03-25T03:12:03;1.52;;;0.68;;
47555;SDS011;33291;46.222;26.460;2024-03-25T03:14:29;1.00;;;0.70;;
47555;SDS011;33291;46.222;26.460;2024-03-25T03:16:54;1.13;;;0.70;;
47555;SDS011;33291;46.222;26.460;2024-03-25T03:19:24;0.85;;;0.50;;
47555;SDS011;33291;46.222;26.460;2024-03-25T03:21:50;1.38;;;0.95;;
47555;SDS011;33291;46.222;26.460;2024-03-25T03:24:16;0.80;;;0.40;;
47555;SDS011;33291;46.222;26.460;2024-03-25T03:26:42;1.40;;;0.80;;
47555;SDS011;33291;46.222;26.460;2024-03-25T03:29:07;0.95;;;0.63;;
47555;SDS011;33291;46.222;26.460;2024-03-25T03:31:33;1.55;;;0.95;;
47555;SDS011;33291;46.222;26.460;2024-03-25T03:33:59;0.75;;;0.50;;
47555;SDS011;33291;46.222;26.460;2024-03-25T03:36:25;0.82;;;0.63;;
47555;SDS011;33291;46.222;26.460;2024-03-25T03:38:51;1.45;;;0.73;;
47555;SDS011;33291;46.222;26.460;2024-03-25T03:41:17;1.35;;;0.82;;
47555;SDS011;33291;46.222;26.460;2024-03-25T03:43:42;1.33;;;0.95;;
47555;SDS011;33291;46.222;26.460;2024-03-25T03:46:08;2.63;;;1.25;;
47555;SDS011;33291;46.222;26.460;2024-03-25T03:48:34;3.88;;;0.90;;
47555;SDS011;33291;46.222;26.460;2024-03-25T03:51:00;1.52;;;1.00;;
47555;SDS011;33291;46.222;26.460;2024-03-25T03:53:26;6.97;;;1.35;;
47555;SDS011;33291;46.222;26.460;2024-03-25T03:56:01;2.60;;;1.13;;
47555;SDS011;33291;46.222;26.460;2024-03-25T03:58:31;2.20;;;1.10;;
47555;SDS011;33291;46.222;26.460;2024-03-25T04:00:57;1.83;;;1.08;;
47555;SDS011;33291;46.222;26.460;2024-03-25T04:03:23;3.72;;;1.27;;
47555;SDS011;33291;46.222;26.460;2024-03-25T04:05:49;3.60;;;1.65;;
47555;SDS011;33291;46.222;26.460;2024-03-25T04:08:14;2.15;;;1.27;;
47555;SDS011;33291;46.222;26.460;2024-03-25T04:10:40;2.28;;;1.25;;
47555;SDS011;33291;46.222;26.460;2024-03-25T04:13:07;4.55;;;1.80;;
47555;SDS011;33291;46.222;26.460;2024-03-25T04:15:36;2.47;;;1.50;;
47555;SDS011;33291;46.222;26.460;2024-03-25T04:18:03;3.42;;;1.52;;
47555;SDS011;33291;46.222;26.460;2024-03-25T04:20:29;3.75;;;1.30;;
47555;SDS011;33291;46.222;26.460;2024-03-25T04:23:00;1.50;;;1.05;;
47555;SDS011;33291;46.222;26.460;2024-03-25T04:25:26;2.08;;;1.10;;
47555;SDS011;33291;46.222;26.460;2024-03-25T04:27:52;2.20;;;1.48;;
47555;SDS011;33291;46.222;26.460;2024-03-25T04:30:17;2.95;;;1.63;;
47555;SDS011;33291;46.222;26.460;2024-03-25T04:32:43;6.85;;;3.55;;
47555;SDS011;33291;46.222;26.460;2024-03-25T04:35:08;3.67;;;2.55;;
47555;SDS011;33291;46.222;26.460;2024-03-25T04:37:34;3.03;;;2.05;;
47555;SDS011;33291;46.222;26.460;2024-03-25T04:40:01;3.97;;;1.70;;
47555;SDS011;33291;46.222;26.460;2024-03-25T04:42:27;2.63;;;1.55;;
47555;SDS011;33291;46.222;26.460;2024-03-25T04:44:53;3.05;;;1.85;;
47555;SDS011;33291;46.222;26.460;2024-03-25T04:47:19;2.50;;;1.33;;
47555;SDS011;33291;46.222;26.460;2024-03-25T04:49:45;2.95;;;1.65;;
47555;SDS011;33291;46.222;26.460;2024-03-25T04:52:13;1.85;;;1.15;;
47555;SDS011;33291;46.222;26.460;2024-03-25T04:54:43;2.42;;;1.23;;
47555;SDS011;33291;46.222;26.460;2024-03-25T04:57:09;2.88;;;1.85;;
47555;SDS011;33291;46.222;26.460;2024-03-25T04:59:35;2.65;;;1.73;;
47555;SDS011;33291;46.222;26.460;2024-03-25T05:02:01;3.13;;;1.33;;
47555;SDS011;33291;46.222;26.460;2024-03-25T05:04:27;3.47;;;1.80;;
47555;SDS011;33291;46.222;26.460;2024-03-25T05:06:53;4.82;;;1.90;;
47555;SDS011;33291;46.222;26.460;2024-03-25T05:09:18;3.40;;;1.88;;
47555;SDS011;33291;46.222;26.460;2024-03-25T05:11:45;3.13;;;1.50;;
47555;SDS011;33291;46.222;26.460;2024-03-25T05:14:10;6.68;;;1.40;;
47555;SDS011;33291;46.222;26.460;2024-03-25T05:16:36;3.47;;;1.40;;
47555;SDS011;33291;46.222;26.460;2024-03-25T05:19:02;2.85;;;1.73;;
47555;SDS011;33291;46.222;26.460;2024-03-25T05:21:29;6.50;;;2.40;;
47555;SDS011;33291;46.222;26.460;2024-03-25T05:23:56;14.68;;;5.13;;
47555;SDS011;33291;46.222;26.460;2024-03-25T05:26:21;8.00;;;4.55;;
47555;SDS011;33291;46.222;26.460;2024-03-25T05:28:52;4.07;;;2.38;;
47555;SDS011;33291;46.222;26.460;2024-03-25T05:31:18;5.20;;;2.55;;
47555;SDS011;33291;46.222;26.460;2024-03-25T05:33:45;7.03;;;4.15;;
47555;SDS011;33291;46.222;26.460;2024-03-25T05:36:11;4.45;;;1.83;;
47555;SDS011;33291;46.222;26.460;2024-03-25T05:38:36;3.15;;;1.55;;
47555;SDS011;33291;46.222;26.460;2024-03-25T05:41:03;2.20;;;1.40;;
47555;SDS011;33291;46.222;26.460;2024-03-25T05:43:29;4.40;;;2.20;;
47555;SDS011;33291;46.222;26.460;2024-03-25T05:45:55;2.50;;;1.55;;
47555;SDS011;33291;46.222;26.460;2024-03-25T05:48:21;3.08;;;1.80;;
47555;SDS011;33291;46.222;26.460;2024-03-25T05:51:00;6.55;;;2.85;;
47555;SDS011;33291;46.222;26.460;2024-03-25T05:53:27;3.88;;;2.25;;
47555;SDS011;33291;46.222;26.460;2024-03-25T05:55:53;4.70;;;2.05;;
47555;SDS011;33291;46.222;26.460;2024-03-25T05:58:18;2.85;;;1.75;;
47555;SDS011;33291;46.222;26.460;2024-03-25T06:00:46;2.45;;;1.48;;
47555;SDS011;33291;46.222;26.460;2024-03-25T06:03:13;2.70;;;1.23;;
47555;SDS011;33291;46.222;26.460;2024-03-25T06:05:38;2.72;;;1.40;;
47555;SDS011;33291;46.222;26.460;2024-03-25T06:08:04;2.00;;;1.20;;
47555;SDS011;33291;46.222;26.460;2024-03-25T06:10:34;3.70;;;1.75;;
47555;SDS011;33291;46.222;26.460;2024-03-25T06:13:01;2.50;;;1.50;;
47555;SDS011;33291;46.222;26.460;2024-03-25T06:15:26;3.20;;;1.63;;
47555;SDS011;33291;46.222;26.460;2024-03-25T06:17:52;2.28;;;1.38;;
47555;SDS011;33291;46.222;26.460;2024-03-25T06:20:17;4.50;;;2.42;;
47555;SDS011;33291;46.222;26.460;2024-03-25T06:22:43;3.47;;;1.77;;
47555;SDS011;33291;46.222;26.460;2024-03-25T06:25:09;4.00;;;1.60;;
47555;SDS011;33291;46.222;26.460;2024-03-25T06:27:34;3.28;;;1.67;;
47555;SDS011;33291;46.222;26.460;2024-03-25T06:30:00;2.65;;;1.20;;
47555;SDS011;33291;46.222;26.460;2024-03-25T06:32:44;3.60;;;1.88;;
47555;SDS011;33291;46.222;26.460;2024-03-25T06:35:29;2.55;;;1.73;;
47555;SDS011;33291;46.222;26.460;2024-03-25T06:37:54;2.13;;;1.17;;
47555;SDS011;33291;46.222;26.460;2024-03-25T06:40:20;2.58;;;1.13;;
47555;SDS011;33291;46.222;26.460;2024-03-25T06:42:47;5.07;;;1.70;;
47555;SDS011;33291;46.222;26.460;2024-03-25T06:45:13;1.95;;;1.17;;
47555;SDS011;33291;46.222;26.460;2024-03-25T06:47:41;3.80;;;1.52;;
47555;SDS011;33291;46.222;26.460;2024-03-25T06:50:07;4.85;;;1.27;;
47555;SDS011;33291;46.222;26.460;2024-03-25T06:52:32;2.50;;;1.27;;
47555;SDS011;33291;46.222;26.460;2024-03-25T06:54:58;8.27;;;2.92;;
47555;SDS011;33291;46.222;26.460;2024-03-25T06:57:24;6.95;;;2.10;;
47555;SDS011;33291;46.222;26.460;2024-03-25T06:59:50;3.58;;;1.83;;
47555;SDS011;33291;46.222;26.460;2024-03-25T07:02:15;7.85;;;2.30;;
47555;SDS011;33291;46.222;26.460;2024-03-25T07:04:41;4.60;;;2.20;;
47555;SDS011;33291;46.222;26.460;2024-03-25T07:07:07;8.38;;;2.70;;
47555;SDS011;33291;46.222;26.460;2024-03-25T07:09:33;12.23;;;2.83;;
47555;SDS011;33291;46.222;26.460;2024-03-25T07:11:59;6.22;;;2.15;;
47555;SDS011;33291;46.222;26.460;2024-03-25T07:14:25;4.32;;;1.60;;
47555;SDS011;33291;46.222;26.460;2024-03-25T07:16:50;2.67;;;1.50;;
47555;SDS011;33291;46.222;26.460;2024-03-25T07:19:16;4.15;;;2.25;;
47555;SDS011;33291;46.222;26.460;2024-03-25T07:21:41;7.03;;;3.75;;
47555;SDS011;33291;46.222;26.460;2024-03-25T07:24:07;5.13;;;2.80;;
47555;SDS011;33291;46.222;26.460;2024-03-25T07:26:33;4.80;;;2.65;;
47555;SDS011;33291;46.222;26.460;2024-03-25T07:28:58;12.70;;;4.55;;
47555;SDS011;33291;46.222;26.460;2024-03-25T07:31:24;6.82;;;2.33;;
47555;SDS011;33291;46.222;26.460;2024-03-25T07:33:50;6.78;;;2.30;;
47555;SDS011;33291;46.222;26.460;2024-03-25T07:36:16;5.10;;;2.50;;
47555;SDS011;33291;46.222;26.460;2024-03-25T07:38:44;5.82;;;2.80;;
47555;SDS011;33291;46.222;26.460;2024-03-25T07:41:09;5.72;;;2.97;;
47555;SDS011;33291;46.222;26.460;2024-03-25T07:43:35;10.77;;;3.55;;
47555;SDS011;33291;46.222;26.460;2024-03-25T07:46:00;3.58;;;1.65;;
47555;SDS011;33291;46.222;26.460;2024-03-25T07:48:26;3.45;;;1.48;;
47555;SDS011;33291;46.222;26.460;2024-03-25T07:50:52;3.42;;;1.48;;
47555;SDS011;33291;46.222;26.460;2024-03-25T07:53:17;3.50;;;1.73;;
47555;SDS011;33291;46.222;26.460;2024-03-25T07:55:43;1.63;;;0.93;;
47555;SDS011;33291;46.222;26.460;2024-03-25T07:58:09;3.63;;;1.02;;
47555;SDS011;33291;46.222;26.460;2024-03-25T08:00:34;3.45;;;1.02;;
47555;SDS011;33291;46.222;26.460;2024-03-25T08:03:00;1.95;;;1.00;;
47555;SDS011;33291;46.222;26.460;2024-03-25T08:05:26;1.70;;;1.02;;
47555;SDS011;33291;46.222;26.460;2024-03-25T08:07:54;2.20;;;1.02;;
47555;SDS011;33291;46.222;26.460;2024-03-25T08:10:20;1.45;;;0.80;;
47555;SDS011;33291;46.222;26.460;2024-03-25T08:12:45;1.65;;;1.02;;
47555;SDS011;33291;46.222;26.460;2024-03-25T08:15:11;1.92;;;0.90;;
47555;SDS011;33291;46.222;26.460;2024-03-25T08:17:38;1.55;;;1.00;;
47555;SDS011;33291;46.222;26.460;2024-03-25T08:20:04;1.75;;;0.85;;
47555;SDS011;33291;46.222;26.460;2024-03-25T08:22:30;15.80;;;6.47;;
47555;SDS011;33291;46.222;26.460;2024-03-25T08:24:56;11.02;;;5.78;;
47555;SDS011;33291;46.222;26.460;2024-03-25T08:27:21;2.88;;;1.02;;
47555;SDS011;33291;46.222;26.460;2024-03-25T08:29:47;2.20;;;0.88;;
47555;SDS011;33291;46.222;26.460;2024-03-25T08:32:14;0.93;;;0.80;;
47555;SDS011;33291;46.222;26.460;2024-03-25T08:34:39;1.27;;;1.02;;
47555;SDS011;33291;46.222;26.460;2024-03-25T08:37:05;1.38;;;0.73;;
47555;SDS011;33291;46.222;26.460;2024-03-25T08:39:31;8.73;;;2.83;;
47555;SDS011;33291;46.222;26.460;2024-03-25T08:41:56;5.00;;;1.80;;
47555;SDS011;33291;46.222;26.460;2024-03-25T08:44:22;5.63;;;1.75;;
47555;SDS011;33291;46.222;26.460;2024-03-25T08:46:47;4.55;;;1.20;;
47555;SDS011;33291;46.222;26.460;2024-03-25T08:49:13;1.75;;;1.05;;
47555;SDS011;33291;46.222;26.460;2024-03-25T08:51:39;2.75;;;0.88;;
47555;SDS011;33291;46.222;26.460;2024-03-25T08:54:04;0.70;;;0.50;;
47555;SDS011;33291;46.222;26.460;2024-03-25T08:56:30;1.10;;;0.70;;
47555;SDS011;33291;46.222;26.460;2024-03-25T08:58:55;1.65;;;0.80;;
47555;SDS011;33291;46.222;26.460;2024-03-25T09:01:22;2.17;;;1.10;;
47555;SDS011;33291;46.222;26.460;2024-03-25T09:03:49;0.88;;;0.68;;
47555;SDS011;33291;46.222;26.460;2024-03-25T09:06:15;2.88;;;0.80;;
47555;SDS011;33291;46.222;26.460;2024-03-25T09:08:42;1.75;;;0.73;;
47555;SDS011;33291;46.222;26.460;2024-03-25T09:11:26;1.83;;;0.82;;
47555;SDS011;33291;46.222;26.460;2024-03-25T09:13:52;1.45;;;0.90;;
47555;SDS011;33291;46.222;26.460;2024-03-25T09:16:18;1.70;;;0.70;;
47555;SDS011;33291;46.222;26.460;2024-03-25T09:18:44;1.63;;;0.75;;
47555;SDS011;33291;46.222;26.460;2024-03-25T09:21:10;1.80;;;1.33;;
47555;SDS011;33291;46.222;26.460;2024-03-25T09:23:36;1.27;;;0.93;;
47555;SDS011;33291;46.222;26.460;2024-03-25T09:26:02;3.53;;;1.00;;
47555;SDS011;33291;46.222;26.460;2024-03-25T09:28:27;1.95;;;0.95;;
47555;SDS011;33291;46.222;26.460;2024-03-25T09:30:53;1.55;;;0.70;;
47555;SDS011;33291;46.222;26.460;2024-03-25T09:33:19;5.30;;;0.65;;
47555;SDS011;33291;46.222;26.460;2024-03-25T09:35:44;1.80;;;1.20;;
47555;SDS011;33291;46.222;26.460;2024-03-25T09:38:10;1.02;;;0.65;;
47555;SDS011;33291;46.222;26.460;2024-03-25T09:40:36;1.88;;;1.05;;
47555;SDS011;33291;46.222;26.460;2024-03-25T09:43:06;2.58;;;1.20;;
47555;SDS011;33291;46.222;26.460;2024-03-25T09:45:38;1.63;;;0.57;;
47555;SDS011;33291;46.222;26.460;2024-03-25T09:48:05;1.27;;;0.60;;
47555;SDS011;33291;46.222;26.460;2024-03-25T09:50:32;2.13;;;0.90;;
47555;SDS011;33291;46.222;26.460;2024-03-25T09:52:58;2.92;;;0.70;;
47555;SDS011;33291;46.222;26.460;2024-03-25T09:55:23;5.72;;;2.45;;
47555;SDS011;33291;46.222;26.460;2024-03-25T09:57:49;2.25;;;1.05;;
47555;SDS011;33291;46.222;26.460;2024-03-25T10:00:16;2.58;;;1.33;;
47555;SDS011;33291;46.222;26.460;2024-03-25T10:02:43;3.72;;;1.10;;
47555;SDS011;33291;46.222;26.460;2024-03-25T10:05:10;6.18;;;3.25;;
47555;SDS011;33291;46.222;26.460;2024-03-25T10:07:35;3.70;;;1.42;;
47555;SDS011;33291;46.222;26.460;2024-03-25T10:10:04;1.05;;;0.70;;
47555;SDS011;33291;46.222;26.460;2024-03-25T10:12:31;6.57;;;3.03;;
47555;SDS011;33291;46.222;26.460;2024-03-25T10:14:57;5.45;;;2.20;;
47555;SDS011;33291;46.222;26.460;2024-03-25T10:17:23;2.97;;;1.83;;
47555;SDS011;33291;46.222;26.460;2024-03-25T10:19:49;2.78;;;1.13;;
47555;SDS011;33291;46.222;26.460;2024-03-25T10:22:15;1.70;;;0.93;;
47555;SDS011;33291;46.222;26.460;2024-03-25T10:27:10;4.13;;;1.08;;
47555;SDS011;33291;46.222;26.460;2024-03-25T10:29:43;2.47;;;0.70;;
47555;SDS011;33291;46.222;26.460;2024-03-25T10:32:08;1.85;;;0.60;;
47555;SDS011;33291;46.222;26.460;2024-03-25T10:34:34;0.70;;;0.60;;
47555;SDS011;33291;46.222;26.460;2024-03-25T10:37:00;3.58;;;1.00;;
47555;SDS011;33291;46.222;26.460;2024-03-25T10:39:30;1.48;;;1.15;;
47555;SDS011;33291;46.222;26.460;2024-03-25T10:41:57;2.58;;;1.05;;
47555;SDS011;33291;46.222;26.460;2024-03-25T10:44:29;1.95;;;1.13;;
47555;SDS011;33291;46.222;26.460;2024-03-25T10:46:57;5.03;;;1.73;;
47555;SDS011;33291;46.222;26.460;2024-03-25T10:49:40;3.42;;;1.58;;
47555;SDS011;33291;46.222;26.460;2024-03-25T10:52:09;3.20;;;1.00;;
47555;SDS011;33291;46.222;26.460;2024-03-25T10:54:38;2.30;;;1.00;;
47555;SDS011;33291;46.222;26.460;2024-03-25T10:57:05;1.27;;;0.75;;
47555;SDS011;33291;46.222;26.460;2024-03-25T10:59:33;4.90;;;0.98;;
47555;SDS011;33291;46.222;26.460;2024-03-25T11:02:03;2.13;;;1.02;;
47555;SDS011;33291;46.222;26.460;2024-03-25T11:04:28;1.75;;;0.90;;
47555;SDS011;33291;46.222;26.460;2024-03-25T11:07:05;2.53;;;1.00;;
47555;SDS011;33291;46.222;26.460;2024-03-25T11:09:38;2.50;;;0.82;;
47555;SDS011;33291;46.222;26.460;2024-03-25T11:12:05;3.03;;;0.82;;
47555;SDS011;33291;46.222;26.460;2024-03-25T11:14:31;2.13;;;0.85;;
47555;SDS011;33291;46.222;26.460;2024-03-25T11:17:00;2.40;;;0.90;;
47555;SDS011;33291;46.222;26.460;2024-03-25T11:19:27;4.95;;;1.27;;
47555;SDS011;33291;46.222;26.460;2024-03-25T11:21:55;2.70;;;0.93;;
47555;SDS011;33291;46.222;26.460;2024-03-25T11:24:35;2.03;;;1.30;;
47555;SDS011;33291;46.222;26.460;2024-03-25T11:27:02;3.08;;;0.95;;
47555;SDS011;33291;46.222;26.460;2024-03-25T11:29:31;2.22;;;0.95;;
47555;SDS011;33291;46.222;26.460;2024-03-25T11:31:58;1.30;;;0.85;;
47555;SDS011;33291;46.222;26.460;2024-03-25T11:34:28;2.47;;;1.10;;
47555;SDS011;33291;46.222;26.460;2024-03-25T11:36:54;1.83;;;0.98;;
47555;SDS011;33291;46.222;26.460;2024-03-25T11:39:21;2.58;;;0.60;;
47555;SDS011;33291;46.222;26.460;2024-03-25T11:41:47;1.67;;;0.93;;
47555;SDS011;33291;46.222;26.460;2024-03-25T11:44:13;1.45;;;0.82;;
47555;SDS011;33291;46.222;26.460;2024-03-25T11:46:39;2.17;;;0.95;;
47555;SDS011;33291;46.222;26.460;2024-03-25T11:49:15;1.38;;;0.75;;
47555;SDS011;33291;46.222;26.460;2024-03-25T11:51:43;2.55;;;1.30;;
47555;SDS011;33291;46.222;26.460;2024-03-25T11:54:11;2.20;;;0.90;;
47555;SDS011;33291;46.222;26.460;2024-03-25T11:56:37;3.20;;;1.27;;
47555;SDS011;33291;46.222;26.460;2024-03-25T11:59:03;2.35;;;1.52;;
47555;SDS011;33291;46.222;26.460;2024-03-25T12:01:29;1.80;;;0.65;;
47555;SDS011;33291;46.222;26.460;2024-03-25T12:04:19;2.33;;;1.30;;
47555;SDS011;33291;46.222;26.460;2024-03-25T12:06:44;2.83;;;1.17;;
47555;SDS011;33291;46.222;26.460;2024-03-25T12:09:10;4.20;;;1.60;;
47555;SDS011;33291;46.222;26.460;2024-03-25T12:11:55;2.90;;;1.90;;
47555;SDS011;33291;46.222;26.460;2024-03-25T12:14:22;2.78;;;0.80;;
47555;SDS011;33291;46.222;26.460;2024-03-25T12:16:48;2.25;;;1.20;;
47555;SDS011;33291;46.222;26.460;2024-03-25T12:19:15;1.80;;;1.13;;
47555;SDS011;33291;46.222;26.460;2024-03-25T12:21:43;3.28;;;1.05;;
47555;SDS011;33291;46.222;26.460;2024-03-25T12:24:09;4.38;;;1.42;;
47555;SDS011;33291;46.222;26.460;2024-03-25T12:26:36;1.42;;;0.63;;
47555;SDS011;33291;46.222;26.460;2024-03-25T12:29:02;1.00;;;0.60;;
47555;SDS011;33291;46.222;26.460;2024-03-25T12:31:29;1.67;;;0.93;;
47555;SDS011;33291;46.222;26.460;2024-03-25T12:33:55;2.35;;;0.90;;
47555;SDS011;33291;46.222;26.460;2024-03-25T12:36:21;2.65;;;1.00;;
47555;SDS011;33291;46.222;26.460;2024-03-25T12:38:56;2.35;;;1.05;;
47555;SDS011;33291;46.222;26.460;2024-03-25T12:41:22;1.88;;;0.80;;
47555;SDS011;33291;46.222;26.460;2024-03-25T12:43:49;1.77;;;0.80;;
47555;SDS011;33291;46.222;26.460;2024-03-25T12:46:16;2.17;;;0.70;;
47555;SDS011;33291;46.222;26.460;2024-03-25T12:48:42;1.38;;;0.82;;
47555;SDS011;33291;46.222;26.460;2024-03-25T12:51:14;1.58;;;0.63;;
47555;SDS011;33291;46.222;26.460;2024-03-25T12:53:41;1.83;;;0.70;;
47555;SDS011;33291;46.222;26.460;2024-03-25T12:56:06;1.65;;;0.95;;
47555;SDS011;33291;46.222;26.460;2024-03-25T12:58:33;3.53;;;0.80;;
47555;SDS011;33291;46.222;26.460;2024-03-25T13:00:59;2.22;;;0.90;;
47555;SDS011;33291;46.222;26.460;2024-03-25T13:03:25;1.40;;;0.85;;
47555;SDS011;33291;46.222;26.460;2024-03-25T13:05:50;1.92;;;0.80;;
47555;SDS011;33291;46.222;26.460;2024-03-25T13:08:16;0.90;;;0.60;;
47555;SDS011;33291;46.222;26.460;2024-03-25T13:10:42;2.58;;;1.08;;
47555;SDS011;33291;46.222;26.460;2024-03-25T13:13:08;3.35;;;1.70;;
47555;SDS011;33291;46.222;26.460;2024-03-25T13:15:33;3.50;;;1.40;;
47555;SDS011;33291;46.222;26.460;2024-03-25T13:18:00;2.67;;;1.50;;
47555;SDS011;33291;46.222;26.460;2024-03-25T13:20:25;3.08;;;1.90;;
47555;SDS011;33291;46.222;26.460;2024-03-25T13:22:54;3.47;;;1.50;;
47555;SDS011;33291;46.222;26.460;2024-03-25T13:25:24;3.75;;;1.60;;
47555;SDS011;33291;46.222;26.460;2024-03-25T13:27:50;4.03;;;2.17;;
47555;SDS011;33291;46.222;26.460;2024-03-25T13:30:16;2.95;;;2.03;;
47555;SDS011;33291;46.222;26.460;2024-03-25T13:32:41;3.00;;;1.42;;
47555;SDS011;33291;46.222;26.460;2024-03-25T13:35:07;1.55;;;0.88;;
47555;SDS011;33291;46.222;26.460;2024-03-25T13:37:33;4.38;;;2.05;;
47555;SDS011;33291;46.222;26.460;2024-03-25T13:39:58;1.50;;;0.73;;
47555;SDS011;33291;46.222;26.460;2024-03-25T13:42:24;1.23;;;0.55;;
47555;SDS011;33291;46.222;26.460;2024-03-25T13:44:50;3.55;;;1.55;;
47555;SDS011;33291;46.222;26.460;2024-03-25T13:47:15;9.90;;;4.43;;
47555;SDS011;33291;46.222;26.460;2024-03-25T13:49:41;4.25;;;2.10;;
47555;SDS011;33291;46.222;26.460;2024-03-25T13:52:07;2.20;;;1.08;;
47555;SDS011;33291;46.222;26.460;2024-03-25T13:54:32;7.15;;;1.98;;
47555;SDS011;33291;46.222;26.460;2024-03-25T13:56:58;2.85;;;2.00;;
47555;SDS011;33291;46.222;26.460;2024-03-25T13:59:24;6.95;;;3.03;;
47555;SDS011;33291;46.222;26.460;2024-03-25T14:01:50;2.47;;;1.42;;
47555;SDS011;33291;46.222;26.460;2024-03-25T14:04:17;2.65;;;0.75;;
47555;SDS011;33291;46.222;26.460;2024-03-25T14:06:43;2.55;;;1.15;;
47555;SDS011;33291;46.222;26.460;2024-03-25T14:09:10;2.10;;;1.20;;
47555;SDS011;33291;46.222;26.460;2024-03-25T14:11:48;4.22;;;0.77;;
47555;SDS011;33291;46.222;26.460;2024-03-25T14:14:13;1.10;;;0.57;;
47555;SDS011;33291;46.222;26.460;2024-03-25T14:16:39;1.85;;;1.10;;
47555;SDS011;33291;46.222;26.460;2024-03-25T14:19:05;3.45;;;1.92;;
47555;SDS011;33291;46.222;26.460;2024-03-25T14:21:30;14.23;;;2.22;;
47555;SDS011;33291;46.222;26.460;2024-03-25T14:23:56;1.20;;;0.93;;
47555;SDS011;33291;46.222;26.460;2024-03-25T14:26:22;2.03;;;1.10;;
47555;SDS011;33291;46.222;26.460;2024-03-25T14:28:48;1.90;;;0.70;;
47555;SDS011;33291;46.222;26.460;2024-03-25T14:31:13;1.85;;;0.77;;
47555;SDS011;33291;46.222;26.460;2024-03-25T14:33:39;2.75;;;0.90;;